Arca — PDHT — position and weather

sailwx.info

Track history (hours):
 
Tides and Currents Weather Stations Pressure Air Temp Water Temp Dewpoint Dewpoint Depression Visibility Wind Speed Wind Dir Waves Ship Positions

Oceanographic research ship Arca (Netherlands)

Detailed information on ship capabilities available from University of Delaware's Ocean Information Center.

Last reported at 2019-Sep-20 09:30 UTC. Time now 2019-Sep-20 09:39 UTC.
Position N 52°06' E 004°16'.

Length 83 m; draft 5 m.

Type: Law enforcement. MMSI: 244454000.

Date/timePositionNaut miles runAvg speedWind from/ knotsBaromVisibWave heightAir tempDewpointWater temp
2019-Sep-20 09:30N 52°06' E 004°16'0 0.0
2019-Sep-20 08:57N 52°06' E 004°16'0 0.0
2019-Sep-20 08:30N 52°06' E 004°16'0 0.0
2019-Sep-20 08:00N 52°06' E 004°16'2 3.3
2019-Sep-20 07:30N 52°07' E 004°13'612.3
2019-Sep-20 07:00N 52°03' E 004°05'612.2
2019-Sep-20 06:30N 52°00' E 003°56'611.8
2019-Sep-20 06:00N 51°56' E 003°50'1 1.1
2019-Sep-20 05:29N 51°56' E 003°49'0 0.0
2019-Sep-20 04:56N 51°56' E 003°49'0 0.0
2019-Sep-20 04:29N 51°56' E 003°49'0 0.0
2019-Sep-20 03:59N 51°56' E 003°49'0 0.1
2019-Sep-20 03:20N 51°56' E 003°49'0 0.0
2019-Sep-20 02:53N 51°56' E 003°49'0 0.0
2019-Sep-20 02:26N 51°56' E 003°49'0 0.0
2019-Sep-20 01:53N 51°56' E 003°49'0 0.0
2019-Sep-20 01:23N 51°56' E 003°49'0 0.0
2019-Sep-20 00:59N 51°56' E 003°49'0 0.0
2019-Sep-20 00:29N 51°56' E 003°49'0 0.0
2019-Sep-19 23:56N 51°56' E 003°49'0 0.0
2019-Sep-19 23:26N 51°56' E 003°49'0 0.0
2019-Sep-19 22:59N 51°56' E 003°49'0 0.0
2019-Sep-19 22:26N 51°56' E 003°49'0 0.0
2019-Sep-19 21:59N 51°56' E 003°49'0 0.0
2019-Sep-19 21:29N 51°56' E 003°49'0 0.0
2019-Sep-19 20:59N 51°56' E 003°49'0 0.1
2019-Sep-19 20:26N 51°56' E 003°49'0 0.0
2019-Sep-19 19:41N 51°56' E 003°49'0 0.0
2019-Sep-19 19:23N 51°56' E 003°49'0 0.0
2019-Sep-19 18:53N 51°56' E 003°49'2 4.0
2019-Sep-19 18:30N 51°56' E 003°46'510.7
2019-Sep-19 18:00N 51°58' E 003°39'2 4.6
2019-Sep-19 17:30N 51°59' E 003°35'3 5.1
2019-Sep-19 16:59N 51°60' E 003°31'3 6.4
2019-Sep-19 16:30N 51°59' E 003°26'25 1.1
2019-Sep-18 17:04N 51°36' E 003°14'11 6.0
2019-Sep-18 15:15N 51°30' E 003°28'310.2
2019-Sep-18 15:00N 51°28' E 003°31'4 8.5
2019-Sep-18 14:30N 51°26' E 003°37'4 8.0
2019-Sep-18 14:00N 51°24' E 003°43'510.0
2019-Sep-18 13:30N 51°21' E 003°49'5 9.7
2019-Sep-18 13:00N 51°23' E 003°56'5 8.2
2019-Sep-18 12:26N 51°26' E 004°01'4 8.7
2019-Sep-18 12:00N 51°22' E 004°04'3 5.6
2019-Sep-18 11:30N 51°22' E 004°08'0 0.4
2019-Sep-18 10:59N 51°23' E 004°09'0 0.7
2019-Sep-18 10:30N 51°22' E 004°08'1 1.2
2019-Sep-18 10:00N 51°22' E 004°07'1 1.4
2019-Sep-18 09:30N 51°22' E 004°06'3 5.4
2019-Sep-18 09:01N 51°23' E 004°02'4 6.8
2019-Sep-18 08:29N 51°26' E 003°59'4 9.2
2019-Sep-18 08:00N 51°22' E 003°56'4 8.2
2019-Sep-18 07:30N 51°21' E 003°49'4 8.5
2019-Sep-18 07:00N 51°23' E 003°43'4 8.4
2019-Sep-18 06:30N 51°26' E 003°40'4 8.0
2019-Sep-18 06:00N 51°27' E 003°33'5 9.2
2019-Sep-18 05:30N 51°30' E 003°28'6 8.9
2019-Sep-18 04:53N 51°35' E 003°23'4 0.4
2019-Sep-17 16:56N 51°32' E 003°17'23 2.9
2019-Sep-17 08:54N 51°53' E 003°32'1 1.2
2019-Sep-17 08:28N 51°54' E 003°32'0 0.2
2019-Sep-17 07:59N 51°54' E 003°32'0 0.6
2019-Sep-17 07:29N 51°54' E 003°32'1 1.2
2019-Sep-17 06:59N 51°54' E 003°32'1 1.5
2019-Sep-17 06:30N 51°54' E 003°33'0 0.4
2019-Sep-17 06:00N 51°54' E 003°32'1 0.4
2019-Sep-17 04:06N 51°53' E 003°33'0 0.0
2019-Sep-17 03:30N 51°53' E 003°33'0 0.0
2019-Sep-17 02:57N 51°53' E 003°33'0 0.0
2019-Sep-17 02:27N 51°53' E 003°33'0 0.1
2019-Sep-17 01:54N 51°53' E 003°33'0 0.1
2019-Sep-17 01:06N 51°53' E 003°33'0 0.1
2019-Sep-17 01:00N 51°53' E 003°33'0 0.0
2019-Sep-17 00:30N 51°53' E 003°33'0 0.0
2019-Sep-16 23:48N 51°53' E 003°33'0 0.0
2019-Sep-16 23:00N 51°53' E 003°33'0 0.0
2019-Sep-16 22:18N 51°53' E 003°33'0 0.0
2019-Sep-16 21:45N 51°53' E 003°33'0 0.0
2019-Sep-16 21:24N 51°53' E 003°33'0 0.0
2019-Sep-16 20:54N 51°53' E 003°33'2 3.7
2019-Sep-16 20:23N 51°53' E 003°36'512.0
2019-Sep-16 19:59N 51°54' E 003°44'611.7
2019-Sep-16 19:31N 51°57' E 003°52'611.3
2019-Sep-16 19:00N 52°00' E 003°59'612.5
2019-Sep-16 18:30N 51°58' E 004°09'611.4
2019-Sep-16 18:00N 51°54' E 004°16'3 6.1
2019-Sep-16 17:30N 51°54' E 004°21'0 0.2
2019-Sep-16 17:00N 51°54' E 004°21'0 0.6
2019-Sep-16 16:30N 51°54' E 004°22'0 0.5
2019-Sep-16 16:01N 51°54' E 004°22'1 1.2
2019-Sep-16 15:30N 51°54' E 004°21'1 2.6
2019-Sep-16 15:01N 51°54' E 004°23'1 3.0
2019-Sep-16 14:31N 51°54' E 004°21'1 1.0
2019-Sep-16 14:00N 51°54' E 004°20'1 2.9
2019-Sep-16 13:31N 51°54' E 004°22'2 4.0
2019-Sep-16 13:00N 51°54' E 004°19'3 5.6
2019-Sep-16 12:30N 51°54' E 004°23'1 2.7
2019-Sep-16 12:00N 51°54' E 004°21'4 8.1
2019-Sep-16 11:31N 51°55' E 004°15'5 9.8
2019-Sep-16 11:01N 51°58' E 004°09'4 8.2
2019-Sep-16 10:30N 52°00' E 004°03'612.6
2019-Sep-16 10:00N 52°05' E 004°08'4 7.8
2019-Sep-16 09:31N 52°09' E 004°12'3 5.6
2019-Sep-16 09:00N 52°06' E 004°15'1 1.1
2019-Sep-16 08:30N 52°06' E 004°16'0 0.0
2019-Sep-16 08:00N 52°06' E 004°16'0 0.0
2019-Sep-16 07:30N 52°06' E 004°16'0 0.0
2019-Sep-16 07:00N 52°06' E 004°16'0 0.0
2019-Sep-16 06:30N 52°06' E 004°16'0 0.0
2019-Sep-16 06:00N 52°06' E 004°16'0 0.0
2019-Sep-16 05:30N 52°06' E 004°16'0 0.0
2019-Sep-16 05:00N 52°06' E 004°16'0 0.0
2019-Sep-16 04:30N 52°06' E 004°16'0 0.0
2019-Sep-16 04:00N 52°06' E 004°16'0 0.0
2019-Sep-16 03:30N 52°06' E 004°16'0 0.0
2019-Sep-16 03:00N 52°06' E 004°16'0 0.0
2019-Sep-16 02:30N 52°06' E 004°16'0 0.0
2019-Sep-16 02:00N 52°06' E 004°16'0 0.0
2019-Sep-16 01:31N 52°06' E 004°16'0 0.0
2019-Sep-16 01:00N 52°06' E 004°16'0 0.0
2019-Sep-16 00:27N 52°06' E 004°16'0 0.0
2019-Sep-15 23:57N 52°06' E 004°16'0 0.0
2019-Sep-15 23:30N 52°06' E 004°16'0 0.0
2019-Sep-15 23:00N 52°06' E 004°16'0 0.0
2019-Sep-15 22:30N 52°06' E 004°16'0 0.0
2019-Sep-15 22:00N 52°06' E 004°16'0 0.0
2019-Sep-15 21:30N 52°06' E 004°16'0 0.0
2019-Sep-15 21:00N 52°06' E 004°16'0 0.0
2019-Sep-15 20:30N 52°06' E 004°16'0 0.0
2019-Sep-15 20:00N 52°06' E 004°16'0 0.0
2019-Sep-15 19:30N 52°06' E 004°16'0 0.0
2019-Sep-15 19:00N 52°06' E 004°16'0 0.0
2019-Sep-15 18:30N 52°06' E 004°16'0 0.0
2019-Sep-15 18:00N 52°06' E 004°16'0 0.0
2019-Sep-15 17:30N 52°06' E 004°16'0 0.0
2019-Sep-15 17:00N 52°06' E 004°16'0 0.0
2019-Sep-15 16:27N 52°06' E 004°16'0 0.0
2019-Sep-15 16:00N 52°06' E 004°16'0 0.0
2019-Sep-15 15:30N 52°06' E 004°16'0 0.0
2019-Sep-15 15:00N 52°06' E 004°16'0 0.0
2019-Sep-15 14:30N 52°06' E 004°16'0 0.0
2019-Sep-15 14:00N 52°06' E 004°16'0 0.0
2019-Sep-15 13:30N 52°06' E 004°16'0 0.0
2019-Sep-15 13:00N 52°06' E 004°16'0 0.0
2019-Sep-15 12:30N 52°06' E 004°16'0 0.0
2019-Sep-15 12:00N 52°06' E 004°16'0 0.0
2019-Sep-15 11:30N 52°06' E 004°16'0 0.0
2019-Sep-15 10:57N 52°06' E 004°16'0 0.0
2019-Sep-15 10:30N 52°06' E 004°16'0 0.0
2019-Sep-15 10:00N 52°06' E 004°16'0 0.0
2019-Sep-15 09:24N 52°06' E 004°16'0 0.0
2019-Sep-15 09:00N 52°06' E 004°16'0 0.0
2019-Sep-15 08:30N 52°06' E 004°16'0 0.0
2019-Sep-15 08:00N 52°06' E 004°16'0 0.0
2019-Sep-15 07:30N 52°06' E 004°16'0 0.0
2019-Sep-15 07:00N 52°06' E 004°16'0 0.0
2019-Sep-15 06:30N 52°06' E 004°16'0 0.0
2019-Sep-15 06:00N 52°06' E 004°16'0 0.0
2019-Sep-15 05:30N 52°06' E 004°16'0 0.0
2019-Sep-15 05:00N 52°06' E 004°16'0 0.0
2019-Sep-15 04:30N 52°06' E 004°16'0 0.0
2019-Sep-15 04:00N 52°06' E 004°16'0 0.0
2019-Sep-15 03:30N 52°06' E 004°16'0 0.0
2019-Sep-15 03:00N 52°06' E 004°16'0 0.0
2019-Sep-15 02:30N 52°06' E 004°16'0 0.0
2019-Sep-15 02:00N 52°06' E 004°16'0 0.0
2019-Sep-15 01:30N 52°06' E 004°16'0 0.0
2019-Sep-15 01:00N 52°06' E 004°16'0 0.0
2019-Sep-15 00:30N 52°06' E 004°16'0 0.0
2019-Sep-15 00:00N 52°06' E 004°16'0 0.0
2019-Sep-14 23:30N 52°06' E 004°16'0 0.0
2019-Sep-14 23:00N 52°06' E 004°16'0 0.0
2019-Sep-14 22:30N 52°06' E 004°16'0 0.0
2019-Sep-14 22:00N 52°06' E 004°16'0 0.0
2019-Sep-14 21:30N 52°06' E 004°16'0 0.0
2019-Sep-14 21:00N 52°06' E 004°16'0 0.0
2019-Sep-14 20:30N 52°06' E 004°16'0 0.0
2019-Sep-14 20:00N 52°06' E 004°16'0 0.0
2019-Sep-14 19:30N 52°06' E 004°16'0 0.0
2019-Sep-14 18:57N 52°06' E 004°16'0 0.0
2019-Sep-14 18:30N 52°06' E 004°16'0 0.0
2019-Sep-14 18:00N 52°06' E 004°16'0 0.0
2019-Sep-14 17:30N 52°06' E 004°16'0 0.0
2019-Sep-14 17:00N 52°06' E 004°16'0 0.0
2019-Sep-14 16:30N 52°06' E 004°16'0 0.0
2019-Sep-14 15:54N 52°06' E 004°16'0 0.0
2019-Sep-14 15:30N 52°06' E 004°16'0 0.0
2019-Sep-14 15:00N 52°06' E 004°16'0 0.0
2019-Sep-14 14:30N 52°06' E 004°16'0 0.0
2019-Sep-14 14:00N 52°06' E 004°16'0 0.0
2019-Sep-14 13:30N 52°06' E 004°16'0 0.0
2019-Sep-14 13:00N 52°06' E 004°16'0 0.0
2019-Sep-14 12:30N 52°06' E 004°16'0 0.0
2019-Sep-14 12:00N 52°06' E 004°16'0 0.0
2019-Sep-14 11:30N 52°06' E 004°16'0 0.0
2019-Sep-14 11:00N 52°06' E 004°16'0 0.0
2019-Sep-14 10:30N 52°06' E 004°16'0 0.0
2019-Sep-14 10:00N 52°06' E 004°16'0 0.0
2019-Sep-14 09:30N 52°06' E 004°16'0 0.0
2019-Sep-14 09:00N 52°06' E 004°16'0 0.0
2019-Sep-14 08:30N 52°06' E 004°16'0 0.0
2019-Sep-14 08:00N 52°06' E 004°16'0 0.0
2019-Sep-14 07:30N 52°06' E 004°16'0 0.0
2019-Sep-14 07:00N 52°06' E 004°16'0 0.0
2019-Sep-14 06:30N 52°06' E 004°16'0 0.0
2019-Sep-14 06:00N 52°06' E 004°16'0 0.0
2019-Sep-14 05:30N 52°06' E 004°16'0 0.0
2019-Sep-14 05:00N 52°06' E 004°16'0 0.0
2019-Sep-14 04:30N 52°06' E 004°16'0 0.0
2019-Sep-14 04:00N 52°06' E 004°16'0 0.0
2019-Sep-14 03:30N 52°06' E 004°16'0 0.0
2019-Sep-14 02:57N 52°06' E 004°16'0 0.0
2019-Sep-14 02:30N 52°06' E 004°16'0 0.0
2019-Sep-14 02:00N 52°06' E 004°16'0 0.0
2019-Sep-14 01:30N 52°06' E 004°16'0 0.0
2019-Sep-14 01:00N 52°06' E 004°16'0 0.0
2019-Sep-14 00:30N 52°06' E 004°16'0 0.0
2019-Sep-14 00:00N 52°06' E 004°16'0 0.0
2019-Sep-13 23:30N 52°06' E 004°16'0 0.0
2019-Sep-13 23:00N 52°06' E 004°16'0 0.0
2019-Sep-13 22:30N 52°06' E 004°16'0 0.0
2019-Sep-13 22:00N 52°06' E 004°16'0 0.0
2019-Sep-13 21:30N 52°06' E 004°16'0 0.0
2019-Sep-13 21:00N 52°06' E 004°16'0 0.0
2019-Sep-13 20:30N 52°06' E 004°16'0 0.0
2019-Sep-13 20:00N 52°06' E 004°16'0 0.0
2019-Sep-13 19:30N 52°06' E 004°16'0 0.0
2019-Sep-13 19:00N 52°06' E 004°16'0 0.0
2019-Sep-13 18:24N 52°06' E 004°16'0 0.0
2019-Sep-13 18:00N 52°06' E 004°16'0 0.0
2019-Sep-13 17:30N 52°06' E 004°16'0 0.0
2019-Sep-13 17:00N 52°06' E 004°16'0 0.0
2019-Sep-13 16:30N 52°06' E 004°16'0 0.0
2019-Sep-13 16:00N 52°06' E 004°16'0 0.0
2019-Sep-13 15:30N 52°06' E 004°16'0 0.0
2019-Sep-13 15:00N 52°06' E 004°16'0 0.0
2019-Sep-13 14:30N 52°06' E 004°16'0 0.0
2019-Sep-13 14:00N 52°06' E 004°16'0 0.0
2019-Sep-13 13:30N 52°06' E 004°16'0 0.0
2019-Sep-13 13:00N 52°06' E 004°16'0 0.0
2019-Sep-13 12:30N 52°06' E 004°16'0 0.0
2019-Sep-13 12:00N 52°06' E 004°16'0 0.0
2019-Sep-13 11:30N 52°06' E 004°16'0 0.0
2019-Sep-13 11:00N 52°06' E 004°16'0 0.0
2019-Sep-13 10:30N 52°06' E 004°16'0 0.0
2019-Sep-13 10:00N 52°06' E 004°16'0 0.0
2019-Sep-13 09:30N 52°06' E 004°16'0 0.0
2019-Sep-13 09:00N 52°06' E 004°16'0 0.0
2019-Sep-13 08:30N 52°06' E 004°16'0 0.0
2019-Sep-13 08:00N 52°06' E 004°16'0 0.0
2019-Sep-13 07:30N 52°06' E 004°16'0 0.0
2019-Sep-13 07:00N 52°06' E 004°16'0 0.0
2019-Sep-13 06:30N 52°06' E 004°16'0 0.0
2019-Sep-13 06:00N 52°06' E 004°16'0 0.0
2019-Sep-13 05:30N 52°06' E 004°16'0 0.0
2019-Sep-13 05:00N 52°06' E 004°16'0 0.0
2019-Sep-13 04:30N 52°06' E 004°16'0 0.0
2019-Sep-13 04:00N 52°06' E 004°16'0 0.0
2019-Sep-13 03:30N 52°06' E 004°16'0 0.0
2019-Sep-13 02:57N 52°06' E 004°16'0 0.0
2019-Sep-13 02:00N 52°06' E 004°16'0 0.0
2019-Sep-13 01:30N 52°06' E 004°16'0 0.0
2019-Sep-13 01:00N 52°06' E 004°16'0 0.0
2019-Sep-13 00:30N 52°06' E 004°16'0 0.1
2019-Sep-13 00:00N 52°06' E 004°16'0 0.1
2019-Sep-12 23:30N 52°06' E 004°16'0 0.0
2019-Sep-12 23:00N 52°06' E 004°16'0 0.0
2019-Sep-12 22:30N 52°06' E 004°16'0 0.0
2019-Sep-12 22:00N 52°06' E 004°16'0 0.0
2019-Sep-12 21:30N 52°06' E 004°16'0 0.0
2019-Sep-12 21:00N 52°06' E 004°16'0 0.0
2019-Sep-12 20:30N 52°06' E 004°16'0 0.0
2019-Sep-12 20:00N 52°06' E 004°16'0 0.0
2019-Sep-12 19:30N 52°06' E 004°16'0 0.1
2019-Sep-12 19:00N 52°06' E 004°16'0 0.1
2019-Sep-12 18:30N 52°06' E 004°16'0 0.0
2019-Sep-12 18:00N 52°06' E 004°16'0 0.0
2019-Sep-12 17:30N 52°06' E 004°16'0 0.0
2019-Sep-12 17:00N 52°06' E 004°16'0 0.0
2019-Sep-12 16:30N 52°06' E 004°16'0 0.0
2019-Sep-12 16:00N 52°06' E 004°16'0 0.0
2019-Sep-12 15:30N 52°06' E 004°16'0 0.0
2019-Sep-12 15:00N 52°06' E 004°16'0 0.0
2019-Sep-12 14:30N 52°06' E 004°16'0 0.0
2019-Sep-12 14:00N 52°06' E 004°16'0 0.0
2019-Sep-12 13:30N 52°06' E 004°16'0 0.0
2019-Sep-12 13:00N 52°06' E 004°16'0 0.0
2019-Sep-12 12:30N 52°06' E 004°16'0 0.0
2019-Sep-12 12:00N 52°06' E 004°16'0 0.0
2019-Sep-12 11:30N 52°06' E 004°16'0 0.0
2019-Sep-12 11:00N 52°06' E 004°16'0 0.0
2019-Sep-12 10:30N 52°06' E 004°16'0 0.0
2019-Sep-12 10:00N 52°06' E 004°16'0 0.0
2019-Sep-12 09:30N 52°06' E 004°16'0 0.0
2019-Sep-12 09:00N 52°06' E 004°16'2 3.1
2019-Sep-12 08:30N 52°07' E 004°16'611.8
2019-Sep-12 08:01N 52°12' E 004°21'4 8.6
2019-Sep-12 07:30N 52°16' E 004°24'510.0
2019-Sep-12 07:00N 52°21' E 004°25'4 8.2
2019-Sep-12 06:30N 52°25' E 004°25'0 0.4
2019-Sep-12 06:01N 52°25' E 004°25'4 7.1
2019-Sep-12 05:31N 52°28' E 004°21'3 5.0
2019-Sep-12 04:56N 52°31' E 004°20'0 0.1
2019-Sep-12 04:29N 52°31' E 004°20'0 0.0
2019-Sep-12 03:59N 52°31' E 004°20'0 0.0
2019-Sep-12 03:26N 52°31' E 004°20'0 0.0
2019-Sep-12 02:56N 52°31' E 004°20'0 0.0
2019-Sep-12 02:29N 52°31' E 004°20'0 0.0
2019-Sep-12 01:59N 52°31' E 004°20'0 0.0
2019-Sep-12 01:26N 52°31' E 004°20'0 0.0
2019-Sep-12 00:56N 52°31' E 004°20'0 0.0
2019-Sep-12 00:29N 52°31' E 004°20'0 0.1
2019-Sep-11 23:59N 52°31' E 004°20'0 0.0
2019-Sep-11 23:26N 52°31' E 004°20'0 0.0
2019-Sep-11 22:59N 52°31' E 004°20'0 0.1
2019-Sep-11 22:20N 52°31' E 004°20'0 0.0
2019-Sep-11 21:59N 52°31' E 004°20'0 0.0
2019-Sep-11 21:29N 52°31' E 004°20'0 0.0
2019-Sep-11 20:59N 52°31' E 004°20'0 0.0
2019-Sep-11 20:26N 52°31' E 004°20'0 0.1
2019-Sep-11 19:59N 52°31' E 004°20'0 0.1
2019-Sep-11 19:29N 52°31' E 004°20'0 0.0
2019-Sep-11 18:59N 52°31' E 004°20'0 0.0
2019-Sep-11 18:29N 52°31' E 004°20'0 0.0
2019-Sep-11 17:56N 52°31' E 004°20'0 0.0
2019-Sep-11 17:29N 52°31' E 004°20'0 0.0
2019-Sep-11 16:56N 52°31' E 004°20'0 0.0
2019-Sep-11 16:29N 52°31' E 004°20'0 0.0
2019-Sep-11 15:59N 52°31' E 004°20'0 0.0
2019-Sep-11 15:29N 52°31' E 004°20'0 0.0
2019-Sep-11 14:56N 52°31' E 004°20'0 0.0
2019-Sep-11 14:29N 52°31' E 004°20'0 0.6
2019-Sep-11 14:00N 52°31' E 004°21'1 1.1
2019-Sep-11 13:30N 52°31' E 004°21'2 3.8
2019-Sep-11 13:00N 52°32' E 004°24'2 4.2
2019-Sep-11 12:30N 52°33' E 004°27'2 3.5
2019-Sep-11 12:00N 52°34' E 004°29'2 4.8
2019-Sep-11 11:30N 52°36' E 004°30'3 5.3
2019-Sep-11 11:00N 52°39' E 004°32'2 5.0
2019-Sep-11 10:30N 52°41' E 004°32'2 4.1
2019-Sep-11 10:00N 52°43' E 004°33'2 4.7
2019-Sep-11 09:30N 52°46' E 004°33'3 5.6
2019-Sep-11 09:00N 52°49' E 004°33'2 3.3
2019-Sep-11 08:30N 52°50' E 004°34'0 0.0
2019-Sep-11 08:00N 52°50' E 004°34'0 0.1
2019-Sep-11 07:30N 52°50' E 004°34'0 0.3
2019-Sep-11 07:00N 52°50' E 004°34'0 0.7
2019-Sep-11 06:30N 52°50' E 004°33'0 1.0
2019-Sep-11 06:00N 52°50' E 004°34'1 1.1
2019-Sep-11 05:30N 52°51' E 004°34'1 1.4
2019-Sep-11 05:00N 52°51' E 004°34'1 1.6
2019-Sep-11 04:30N 52°51' E 004°33'2 4.3
2019-Sep-11 04:00N 52°53' E 004°30'  
Track history (hours):
 
Tides and Currents Weather Stations Pressure Air Temp Water Temp Dewpoint Dewpoint Depression Visibility Wind Speed Wind Dir Waves Ship Positions

Oceanographic research ship Arca (Netherlands)

Detailed information on ship capabilities available from University of Delaware's Ocean Information Center.

Last reported at 2019-Sep-20 09:30 UTC. Time now 2019-Sep-20 09:39 UTC.
Position N 52°06' E 004°16'.

Length 83 m; draft 5 m.

Type: Law enforcement. MMSI: 244454000.

Date/timePositionNaut miles runAvg speedWind from/ knotsBaromVisibWave heightAir tempDewpointWater temp
2019-Sep-20 09:30N 52°06' E 004°16'0 0.0
2019-Sep-20 08:57N 52°06' E 004°16'0 0.0
2019-Sep-20 08:30N 52°06' E 004°16'0 0.0
2019-Sep-20 08:00N 52°06' E 004°16'2 3.3
2019-Sep-20 07:30N 52°07' E 004°13'612.3
2019-Sep-20 07:00N 52°03' E 004°05'612.2
2019-Sep-20 06:30N 52°00' E 003°56'611.8
2019-Sep-20 06:00N 51°56' E 003°50'1 1.1
2019-Sep-20 05:29N 51°56' E 003°49'0 0.0
2019-Sep-20 04:56N 51°56' E 003°49'0 0.0
2019-Sep-20 04:29N 51°56' E 003°49'0 0.0
2019-Sep-20 03:59N 51°56' E 003°49'0 0.1
2019-Sep-20 03:20N 51°56' E 003°49'0 0.0
2019-Sep-20 02:53N 51°56' E 003°49'0 0.0
2019-Sep-20 02:26N 51°56' E 003°49'0 0.0
2019-Sep-20 01:53N 51°56' E 003°49'0 0.0
2019-Sep-20 01:23N 51°56' E 003°49'0 0.0
2019-Sep-20 00:59N 51°56' E 003°49'0 0.0
2019-Sep-20 00:29N 51°56' E 003°49'0 0.0
2019-Sep-19 23:56N 51°56' E 003°49'0 0.0
2019-Sep-19 23:26N 51°56' E 003°49'0 0.0
2019-Sep-19 22:59N 51°56' E 003°49'0 0.0
2019-Sep-19 22:26N 51°56' E 003°49'0 0.0
2019-Sep-19 21:59N 51°56' E 003°49'0 0.0
2019-Sep-19 21:29N 51°56' E 003°49'0 0.0
2019-Sep-19 20:59N 51°56' E 003°49'0 0.1
2019-Sep-19 20:26N 51°56' E 003°49'0 0.0
2019-Sep-19 19:41N 51°56' E 003°49'0 0.0
2019-Sep-19 19:23N 51°56' E 003°49'0 0.0
2019-Sep-19 18:53N 51°56' E 003°49'2 4.0
2019-Sep-19 18:30N 51°56' E 003°46'510.7
2019-Sep-19 18:00N 51°58' E 003°39'2 4.6
2019-Sep-19 17:30N 51°59' E 003°35'3 5.1
2019-Sep-19 16:59N 51°60' E 003°31'3 6.4
2019-Sep-19 16:30N 51°59' E 003°26'25 1.1
2019-Sep-18 17:04N 51°36' E 003°14'11 6.0
2019-Sep-18 15:15N 51°30' E 003°28'310.2
2019-Sep-18 15:00N 51°28' E 003°31'4 8.5
2019-Sep-18 14:30N 51°26' E 003°37'4 8.0
2019-Sep-18 14:00N 51°24' E 003°43'510.0
2019-Sep-18 13:30N 51°21' E 003°49'5 9.7
2019-Sep-18 13:00N 51°23' E 003°56'5 8.2
2019-Sep-18 12:26N 51°26' E 004°01'4 8.7
2019-Sep-18 12:00N 51°22' E 004°04'3 5.6
2019-Sep-18 11:30N 51°22' E 004°08'0 0.4
2019-Sep-18 10:59N 51°23' E 004°09'0 0.7
2019-Sep-18 10:30N 51°22' E 004°08'1 1.2
2019-Sep-18 10:00N 51°22' E 004°07'1 1.4
2019-Sep-18 09:30N 51°22' E 004°06'3 5.4
2019-Sep-18 09:01N 51°23' E 004°02'4 6.8
2019-Sep-18 08:29N 51°26' E 003°59'4 9.2
2019-Sep-18 08:00N 51°22' E 003°56'4 8.2
2019-Sep-18 07:30N 51°21' E 003°49'4 8.5
2019-Sep-18 07:00N 51°23' E 003°43'4 8.4
2019-Sep-18 06:30N 51°26' E 003°40'4 8.0
2019-Sep-18 06:00N 51°27' E 003°33'5 9.2
2019-Sep-18 05:30N 51°30' E 003°28'6 8.9
2019-Sep-18 04:53N 51°35' E 003°23'4 0.4
2019-Sep-17 16:56N 51°32' E 003°17'23 2.9
2019-Sep-17 08:54N 51°53' E 003°32'1 1.2
2019-Sep-17 08:28N 51°54' E 003°32'0 0.2
2019-Sep-17 07:59N 51°54' E 003°32'0 0.6
2019-Sep-17 07:29N 51°54' E 003°32'1 1.2
2019-Sep-17 06:59N 51°54' E 003°32'1 1.5
2019-Sep-17 06:30N 51°54' E 003°33'0 0.4
2019-Sep-17 06:00N 51°54' E 003°32'1 0.4
2019-Sep-17 04:06N 51°53' E 003°33'0 0.0
2019-Sep-17 03:30N 51°53' E 003°33'0 0.0
2019-Sep-17 02:57N 51°53' E 003°33'0 0.0
2019-Sep-17 02:27N 51°53' E 003°33'0 0.1
2019-Sep-17 01:54N 51°53' E 003°33'0 0.1
2019-Sep-17 01:06N 51°53' E 003°33'0 0.1
2019-Sep-17 01:00N 51°53' E 003°33'0 0.0
2019-Sep-17 00:30N 51°53' E 003°33'0 0.0
2019-Sep-16 23:48N 51°53' E 003°33'0 0.0
2019-Sep-16 23:00N 51°53' E 003°33'0 0.0
2019-Sep-16 22:18N 51°53' E 003°33'0 0.0
2019-Sep-16 21:45N 51°53' E 003°33'0 0.0
2019-Sep-16 21:24N 51°53' E 003°33'0 0.0
2019-Sep-16 20:54N 51°53' E 003°33'2 3.7
2019-Sep-16 20:23N 51°53' E 003°36'512.0
2019-Sep-16 19:59N 51°54' E 003°44'611.7
2019-Sep-16 19:31N 51°57' E 003°52'611.3
2019-Sep-16 19:00N 52°00' E 003°59'612.5
2019-Sep-16 18:30N 51°58' E 004°09'611.4
2019-Sep-16 18:00N 51°54' E 004°16'3 6.1
2019-Sep-16 17:30N 51°54' E 004°21'0 0.2
2019-Sep-16 17:00N 51°54' E 004°21'0 0.6
2019-Sep-16 16:30N 51°54' E 004°22'0 0.5
2019-Sep-16 16:01N 51°54' E 004°22'1 1.2
2019-Sep-16 15:30N 51°54' E 004°21'1 2.6
2019-Sep-16 15:01N 51°54' E 004°23'1 3.0
2019-Sep-16 14:31N 51°54' E 004°21'1 1.0
2019-Sep-16 14:00N 51°54' E 004°20'1 2.9
2019-Sep-16 13:31N 51°54' E 004°22'2 4.0
2019-Sep-16 13:00N 51°54' E 004°19'3 5.6
2019-Sep-16 12:30N 51°54' E 004°23'1 2.7
2019-Sep-16 12:00N 51°54' E 004°21'4 8.1
2019-Sep-16 11:31N 51°55' E 004°15'5 9.8
2019-Sep-16 11:01N 51°58' E 004°09'4 8.2
2019-Sep-16 10:30N 52°00' E 004°03'612.6
2019-Sep-16 10:00N 52°05' E 004°08'4 7.8
2019-Sep-16 09:31N 52°09' E 004°12'3 5.6
2019-Sep-16 09:00N 52°06' E 004°15'1 1.1
2019-Sep-16 08:30N 52°06' E 004°16'0 0.0
2019-Sep-16 08:00N 52°06' E 004°16'0 0.0
2019-Sep-16 07:30N 52°06' E 004°16'0 0.0
2019-Sep-16 07:00N 52°06' E 004°16'0 0.0
2019-Sep-16 06:30N 52°06' E 004°16'0 0.0
2019-Sep-16 06:00N 52°06' E 004°16'0 0.0
2019-Sep-16 05:30N 52°06' E 004°16'0 0.0
2019-Sep-16 05:00N 52°06' E 004°16'0 0.0
2019-Sep-16 04:30N 52°06' E 004°16'0 0.0
2019-Sep-16 04:00N 52°06' E 004°16'0 0.0
2019-Sep-16 03:30N 52°06' E 004°16'0 0.0
2019-Sep-16 03:00N 52°06' E 004°16'0 0.0
2019-Sep-16 02:30N 52°06' E 004°16'0 0.0
2019-Sep-16 02:00N 52°06' E 004°16'0 0.0
2019-Sep-16 01:31N 52°06' E 004°16'0 0.0
2019-Sep-16 01:00N 52°06' E 004°16'0 0.0
2019-Sep-16 00:27N 52°06' E 004°16'0 0.0
2019-Sep-15 23:57N 52°06' E 004°16'0 0.0
2019-Sep-15 23:30N 52°06' E 004°16'0 0.0
2019-Sep-15 23:00N 52°06' E 004°16'0 0.0
2019-Sep-15 22:30N 52°06' E 004°16'0 0.0
2019-Sep-15 22:00N 52°06' E 004°16'0 0.0
2019-Sep-15 21:30N 52°06' E 004°16'0 0.0
2019-Sep-15 21:00N 52°06' E 004°16'0 0.0
2019-Sep-15 20:30N 52°06' E 004°16'0 0.0
2019-Sep-15 20:00N 52°06' E 004°16'0 0.0
2019-Sep-15 19:30N 52°06' E 004°16'0 0.0
2019-Sep-15 19:00N 52°06' E 004°16'0 0.0
2019-Sep-15 18:30N 52°06' E 004°16'0 0.0
2019-Sep-15 18:00N 52°06' E 004°16'0 0.0
2019-Sep-15 17:30N 52°06' E 004°16'0 0.0
2019-Sep-15 17:00N 52°06' E 004°16'0 0.0
2019-Sep-15 16:27N 52°06' E 004°16'0 0.0
2019-Sep-15 16:00N 52°06' E 004°16'0 0.0
2019-Sep-15 15:30N 52°06' E 004°16'0 0.0
2019-Sep-15 15:00N 52°06' E 004°16'0 0.0
2019-Sep-15 14:30N 52°06' E 004°16'0 0.0
2019-Sep-15 14:00N 52°06' E 004°16'0 0.0
2019-Sep-15 13:30N 52°06' E 004°16'0 0.0
2019-Sep-15 13:00N 52°06' E 004°16'0 0.0
2019-Sep-15 12:30N 52°06' E 004°16'0 0.0
2019-Sep-15 12:00N 52°06' E 004°16'0 0.0
2019-Sep-15 11:30N 52°06' E 004°16'0 0.0
2019-Sep-15 10:57N 52°06' E 004°16'0 0.0
2019-Sep-15 10:30N 52°06' E 004°16'0 0.0
2019-Sep-15 10:00N 52°06' E 004°16'0 0.0
2019-Sep-15 09:24N 52°06' E 004°16'0 0.0
2019-Sep-15 09:00N 52°06' E 004°16'0 0.0
2019-Sep-15 08:30N 52°06' E 004°16'0 0.0
2019-Sep-15 08:00N 52°06' E 004°16'0 0.0
2019-Sep-15 07:30N 52°06' E 004°16'0 0.0
2019-Sep-15 07:00N 52°06' E 004°16'0 0.0
2019-Sep-15 06:30N 52°06' E 004°16'0 0.0
2019-Sep-15 06:00N 52°06' E 004°16'0 0.0
2019-Sep-15 05:30N 52°06' E 004°16'0 0.0
2019-Sep-15 05:00N 52°06' E 004°16'0 0.0
2019-Sep-15 04:30N 52°06' E 004°16'0 0.0
2019-Sep-15 04:00N 52°06' E 004°16'0 0.0
2019-Sep-15 03:30N 52°06' E 004°16'0 0.0
2019-Sep-15 03:00N 52°06' E 004°16'0 0.0
2019-Sep-15 02:30N 52°06' E 004°16'0 0.0
2019-Sep-15 02:00N 52°06' E 004°16'0 0.0
2019-Sep-15 01:30N 52°06' E 004°16'0 0.0
2019-Sep-15 01:00N 52°06' E 004°16'0 0.0
2019-Sep-15 00:30N 52°06' E 004°16'0 0.0
2019-Sep-15 00:00N 52°06' E 004°16'0 0.0
2019-Sep-14 23:30N 52°06' E 004°16'0 0.0
2019-Sep-14 23:00N 52°06' E 004°16'0 0.0
2019-Sep-14 22:30N 52°06' E 004°16'0 0.0
2019-Sep-14 22:00N 52°06' E 004°16'0 0.0
2019-Sep-14 21:30N 52°06' E 004°16'0 0.0
2019-Sep-14 21:00N 52°06' E 004°16'0 0.0
2019-Sep-14 20:30N 52°06' E 004°16'0 0.0
2019-Sep-14 20:00N 52°06' E 004°16'0 0.0
2019-Sep-14 19:30N 52°06' E 004°16'0 0.0
2019-Sep-14 18:57N 52°06' E 004°16'0 0.0
2019-Sep-14 18:30N 52°06' E 004°16'0 0.0
2019-Sep-14 18:00N 52°06' E 004°16'0 0.0
2019-Sep-14 17:30N 52°06' E 004°16'0 0.0
2019-Sep-14 17:00N 52°06' E 004°16'0 0.0
2019-Sep-14 16:30N 52°06' E 004°16'0 0.0
2019-Sep-14 15:54N 52°06' E 004°16'0 0.0
2019-Sep-14 15:30N 52°06' E 004°16'0 0.0
2019-Sep-14 15:00N 52°06' E 004°16'0 0.0
2019-Sep-14 14:30N 52°06' E 004°16'0 0.0
2019-Sep-14 14:00N 52°06' E 004°16'0 0.0
2019-Sep-14 13:30N 52°06' E 004°16'0 0.0
2019-Sep-14 13:00N 52°06' E 004°16'0 0.0
2019-Sep-14 12:30N 52°06' E 004°16'0 0.0
2019-Sep-14 12:00N 52°06' E 004°16'0 0.0
2019-Sep-14 11:30N 52°06' E 004°16'0 0.0
2019-Sep-14 11:00N 52°06' E 004°16'0 0.0
2019-Sep-14 10:30N 52°06' E 004°16'0 0.0
2019-Sep-14 10:00N 52°06' E 004°16'0 0.0
2019-Sep-14 09:30N 52°06' E 004°16'0 0.0
2019-Sep-14 09:00N 52°06' E 004°16'0 0.0
2019-Sep-14 08:30N 52°06' E 004°16'0 0.0
2019-Sep-14 08:00N 52°06' E 004°16'0 0.0
2019-Sep-14 07:30N 52°06' E 004°16'0 0.0
2019-Sep-14 07:00N 52°06' E 004°16'0 0.0
2019-Sep-14 06:30N 52°06' E 004°16'0 0.0
2019-Sep-14 06:00N 52°06' E 004°16'0 0.0
2019-Sep-14 05:30N 52°06' E 004°16'0 0.0
2019-Sep-14 05:00N 52°06' E 004°16'0 0.0
2019-Sep-14 04:30N 52°06' E 004°16'0 0.0
2019-Sep-14 04:00N 52°06' E 004°16'0 0.0
2019-Sep-14 03:30N 52°06' E 004°16'0 0.0
2019-Sep-14 02:57N 52°06' E 004°16'0 0.0
2019-Sep-14 02:30N 52°06' E 004°16'0 0.0
2019-Sep-14 02:00N 52°06' E 004°16'0 0.0
2019-Sep-14 01:30N 52°06' E 004°16'0 0.0
2019-Sep-14 01:00N 52°06' E 004°16'0 0.0
2019-Sep-14 00:30N 52°06' E 004°16'0 0.0
2019-Sep-14 00:00N 52°06' E 004°16'0 0.0
2019-Sep-13 23:30N 52°06' E 004°16'0 0.0
2019-Sep-13 23:00N 52°06' E 004°16'0 0.0
2019-Sep-13 22:30N 52°06' E 004°16'0 0.0
2019-Sep-13 22:00N 52°06' E 004°16'0 0.0
2019-Sep-13 21:30N 52°06' E 004°16'0 0.0
2019-Sep-13 21:00N 52°06' E 004°16'0 0.0
2019-Sep-13 20:30N 52°06' E 004°16'0 0.0
2019-Sep-13 20:00N 52°06' E 004°16'0 0.0
2019-Sep-13 19:30N 52°06' E 004°16'0 0.0
2019-Sep-13 19:00N 52°06' E 004°16'0 0.0
2019-Sep-13 18:24N 52°06' E 004°16'0 0.0
2019-Sep-13 18:00N 52°06' E 004°16'0 0.0
2019-Sep-13 17:30N 52°06' E 004°16'0 0.0
2019-Sep-13 17:00N 52°06' E 004°16'0 0.0
2019-Sep-13 16:30N 52°06' E 004°16'0 0.0
2019-Sep-13 16:00N 52°06' E 004°16'0 0.0
2019-Sep-13 15:30N 52°06' E 004°16'0 0.0
2019-Sep-13 15:00N 52°06' E 004°16'0 0.0
2019-Sep-13 14:30N 52°06' E 004°16'0 0.0
2019-Sep-13 14:00N 52°06' E 004°16'0 0.0
2019-Sep-13 13:30N 52°06' E 004°16'0 0.0
2019-Sep-13 13:00N 52°06' E 004°16'0 0.0
2019-Sep-13 12:30N 52°06' E 004°16'0 0.0
2019-Sep-13 12:00N 52°06' E 004°16'0 0.0
2019-Sep-13 11:30N 52°06' E 004°16'0 0.0
2019-Sep-13 11:00N 52°06' E 004°16'0 0.0
2019-Sep-13 10:30N 52°06' E 004°16'0 0.0
2019-Sep-13 10:00N 52°06' E 004°16'0 0.0
2019-Sep-13 09:30N 52°06' E 004°16'0 0.0
2019-Sep-13 09:00N 52°06' E 004°16'0 0.0
2019-Sep-13 08:30N 52°06' E 004°16'0 0.0
2019-Sep-13 08:00N 52°06' E 004°16'0 0.0
2019-Sep-13 07:30N 52°06' E 004°16'0 0.0
2019-Sep-13 07:00N 52°06' E 004°16'0 0.0
2019-Sep-13 06:30N 52°06' E 004°16'0 0.0
2019-Sep-13 06:00N 52°06' E 004°16'0 0.0
2019-Sep-13 05:30N 52°06' E 004°16'0 0.0
2019-Sep-13 05:00N 52°06' E 004°16'0 0.0
2019-Sep-13 04:30N 52°06' E 004°16'0 0.0
2019-Sep-13 04:00N 52°06' E 004°16'0 0.0
2019-Sep-13 03:30N 52°06' E 004°16'0 0.0
2019-Sep-13 02:57N 52°06' E 004°16'0 0.0
2019-Sep-13 02:00N 52°06' E 004°16'0 0.0
2019-Sep-13 01:30N 52°06' E 004°16'0 0.0
2019-Sep-13 01:00N 52°06' E 004°16'0 0.0
2019-Sep-13 00:30N 52°06' E 004°16'0 0.1
2019-Sep-13 00:00N 52°06' E 004°16'0 0.1
2019-Sep-12 23:30N 52°06' E 004°16'0 0.0
2019-Sep-12 23:00N 52°06' E 004°16'0 0.0
2019-Sep-12 22:30N 52°06' E 004°16'0 0.0
2019-Sep-12 22:00N 52°06' E 004°16'0 0.0
2019-Sep-12 21:30N 52°06' E 004°16'0 0.0
2019-Sep-12 21:00N 52°06' E 004°16'0 0.0
2019-Sep-12 20:30N 52°06' E 004°16'0 0.0
2019-Sep-12 20:00N 52°06' E 004°16'0 0.0
2019-Sep-12 19:30N 52°06' E 004°16'0 0.1
2019-Sep-12 19:00N 52°06' E 004°16'0 0.1
2019-Sep-12 18:30N 52°06' E 004°16'0 0.0
2019-Sep-12 18:00N 52°06' E 004°16'0 0.0
2019-Sep-12 17:30N 52°06' E 004°16'0 0.0
2019-Sep-12 17:00N 52°06' E 004°16'0 0.0
2019-Sep-12 16:30N 52°06' E 004°16'0 0.0
2019-Sep-12 16:00N 52°06' E 004°16'0 0.0
2019-Sep-12 15:30N 52°06' E 004°16'0 0.0
2019-Sep-12 15:00N 52°06' E 004°16'0 0.0
2019-Sep-12 14:30N 52°06' E 004°16'0 0.0
2019-Sep-12 14:00N 52°06' E 004°16'0 0.0
2019-Sep-12 13:30N 52°06' E 004°16'0 0.0
2019-Sep-12 13:00N 52°06' E 004°16'0 0.0
2019-Sep-12 12:30N 52°06' E 004°16'0 0.0
2019-Sep-12 12:00N 52°06' E 004°16'0 0.0
2019-Sep-12 11:30N 52°06' E 004°16'0 0.0
2019-Sep-12 11:00N 52°06' E 004°16'0 0.0
2019-Sep-12 10:30N 52°06' E 004°16'0 0.0
2019-Sep-12 10:00N 52°06' E 004°16'0 0.0
2019-Sep-12 09:30N 52°06' E 004°16'0 0.0
2019-Sep-12 09:00N 52°06' E 004°16'2 3.1
2019-Sep-12 08:30N 52°07' E 004°16'611.8
2019-Sep-12 08:01N 52°12' E 004°21'4 8.6
2019-Sep-12 07:30N 52°16' E 004°24'510.0
2019-Sep-12 07:00N 52°21' E 004°25'4 8.2
2019-Sep-12 06:30N 52°25' E 004°25'0 0.4
2019-Sep-12 06:01N 52°25' E 004°25'4 7.1
2019-Sep-12 05:31N 52°28' E 004°21'3 5.0
2019-Sep-12 04:56N 52°31' E 004°20'0 0.1
2019-Sep-12 04:29N 52°31' E 004°20'0 0.0
2019-Sep-12 03:59N 52°31' E 004°20'0 0.0
2019-Sep-12 03:26N 52°31' E 004°20'0 0.0
2019-Sep-12 02:56N 52°31' E 004°20'0 0.0
2019-Sep-12 02:29N 52°31' E 004°20'0 0.0
2019-Sep-12 01:59N 52°31' E 004°20'0 0.0
2019-Sep-12 01:26N 52°31' E 004°20'0 0.0
2019-Sep-12 00:56N 52°31' E 004°20'0 0.0
2019-Sep-12 00:29N 52°31' E 004°20'0 0.1
2019-Sep-11 23:59N 52°31' E 004°20'0 0.0
2019-Sep-11 23:26N 52°31' E 004°20'0 0.0
2019-Sep-11 22:59N 52°31' E 004°20'0 0.1
2019-Sep-11 22:20N 52°31' E 004°20'0 0.0
2019-Sep-11 21:59N 52°31' E 004°20'0 0.0
2019-Sep-11 21:29N 52°31' E 004°20'0 0.0
2019-Sep-11 20:59N 52°31' E 004°20'0 0.0
2019-Sep-11 20:26N 52°31' E 004°20'0 0.1
2019-Sep-11 19:59N 52°31' E 004°20'0 0.1
2019-Sep-11 19:29N 52°31' E 004°20'0 0.0
2019-Sep-11 18:59N 52°31' E 004°20'0 0.0
2019-Sep-11 18:29N 52°31' E 004°20'0 0.0
2019-Sep-11 17:56N 52°31' E 004°20'0 0.0
2019-Sep-11 17:29N 52°31' E 004°20'0 0.0
2019-Sep-11 16:56N 52°31' E 004°20'0 0.0
2019-Sep-11 16:29N 52°31' E 004°20'0 0.0
2019-Sep-11 15:59N 52°31' E 004°20'0 0.0
2019-Sep-11 15:29N 52°31' E 004°20'0 0.0
2019-Sep-11 14:56N 52°31' E 004°20'0 0.0
2019-Sep-11 14:29N 52°31' E 004°20'0 0.6
2019-Sep-11 14:00N 52°31' E 004°21'1 1.1
2019-Sep-11 13:30N 52°31' E 004°21'2 3.8
2019-Sep-11 13:00N 52°32' E 004°24'2 4.2
2019-Sep-11 12:30N 52°33' E 004°27'2 3.5
2019-Sep-11 12:00N 52°34' E 004°29'2 4.8
2019-Sep-11 11:30N 52°36' E 004°30'3 5.3
2019-Sep-11 11:00N 52°39' E 004°32'2 5.0
2019-Sep-11 10:30N 52°41' E 004°32'2 4.1
2019-Sep-11 10:00N 52°43' E 004°33'2 4.7
2019-Sep-11 09:30N 52°46' E 004°33'3 5.6
2019-Sep-11 09:00N 52°49' E 004°33'2 3.3
2019-Sep-11 08:30N 52°50' E 004°34'0 0.0
2019-Sep-11 08:00N 52°50' E 004°34'0 0.1
2019-Sep-11 07:30N 52°50' E 004°34'0 0.3
2019-Sep-11 07:00N 52°50' E 004°34'0 0.7
2019-Sep-11 06:30N 52°50' E 004°33'0 1.0
2019-Sep-11 06:00N 52°50' E 004°34'1 1.1
2019-Sep-11 05:30N 52°51' E 004°34'1 1.4
2019-Sep-11 05:00N 52°51' E 004°34'1 1.6
2019-Sep-11 04:30N 52°51' E 004°33'2 4.3
2019-Sep-11 04:00N 52°53' E 004°30'  

Dump ship's entire track history